Time;durP1;ratioP1;P1;durP2;ratioP2;P2;SDS_P1;SDS_P2;PMS_P1;PMS_P2;Temp;Humidity;BMP_temperature;BMP_pressure;BME280_temperature;BME280_humidity;BME280_pressure;Samples;Min_cycle;Max_cycle;Signal;HPM_P1;HPM_P2
2022/03/13 00:02:09;;;;;;;26.98;12.25;;;;;;;3.76;35.84;102516.91;4966172;28;20034;-73
2022/03/13 00:04:39;;;;;;;27.60;12.65;;;;;;;3.75;35.51;102509.94;4959848;28;20038;-73
2022/03/13 00:07:09;;;;;;;27.35;12.05;;;;;;;3.73;35.79;102519.06;4963759;28;20039;-73
2022/03/13 00:09:35;;;;;;;25.63;11.23;;;;;;;3.72;35.56;102522.69;4963645;28;20035;-73
2022/03/13 00:12:04;;;;;;;26.75;12.05;;;;;;;3.70;35.77;102519.38;4960118;28;21746;-73
2022/03/13 00:14:31;;;;;;;24.60;11.73;;;;;;;3.68;35.40;102516.88;4952876;28;20931;-73
2022/03/13 00:16:57;;;;;;;24.65;12.25;;;;;;;3.63;36.01;102517.38;4979594;28;20089;-73
2022/03/13 00:19:24;;;;;;;22.90;12.10;;;;;;;3.62;36.12;102522.84;4960834;28;20027;-73
2022/03/13 00:21:52;;;;;;;24.77;11.85;;;;;;;3.60;35.84;102519.53;4953694;28;20161;-73
2022/03/13 00:24:20;;;;;;;23.15;11.50;;;;;;;3.58;36.11;102516.16;4955768;28;20042;-73
2022/03/13 00:26:53;;;;;;;26.13;11.77;;;;;;;3.55;36.21;102522.63;4951264;28;20520;-73
2022/03/13 00:29:19;;;;;;;31.00;13.15;;;;;;;3.54;36.52;102514.84;4963169;28;20101;-73
2022/03/13 00:31:45;;;;;;;23.65;11.77;;;;;;;3.51;36.34;102510.69;4959696;28;20035;-73
2022/03/13 00:34:11;;;;;;;24.38;12.25;;;;;;;3.50;36.28;102508.19;4960396;28;20057;-73
2022/03/13 00:36:37;;;;;;;28.38;12.25;;;;;;;3.47;36.19;102511.16;4962884;28;20157;-73
2022/03/13 00:39:02;;;;;;;22.67;11.27;;;;;;;3.41;36.35;102506.47;4959900;28;20026;-73
2022/03/13 00:41:28;;;;;;;28.65;12.48;;;;;;;3.31;36.81;102504.78;4960122;28;20122;-73
2022/03/13 00:43:54;;;;;;;29.02;12.20;;;;;;;3.24;36.87;102505.59;4962591;28;20058;-73
2022/03/13 00:46:20;;;;;;;21.52;11.43;;;;;;;3.20;36.96;102505.03;4963986;28;20031;-73
2022/03/13 00:48:46;;;;;;;25.10;12.55;;;;;;;3.15;36.99;102507.34;4964724;28;20033;-73
2022/03/13 00:51:11;;;;;;;23.55;11.77;;;;;;;3.13;37.04;102514.63;4960341;28;20034;-73
2022/03/13 00:53:38;;;;;;;24.02;11.77;;;;;;;3.12;37.11;102520.06;4963312;28;20555;-73
2022/03/13 00:56:05;;;;;;;28.30;13.27;;;;;;;3.08;37.03;102516.91;4960096;28;20030;-73
2022/03/13 00:58:30;;;;;;;29.88;12.95;;;;;;;3.04;36.91;102518.19;4960991;28;20022;-73
2022/03/13 01:00:56;;;;;;;25.20;11.95;;;;;;;2.98;37.27;102518.81;4964496;28;20604;-73
2022/03/13 01:03:36;;;;;;;26.77;12.95;;;;;;;2.86;37.71;102527.97;4964650;28;20031;-73
2022/03/13 01:06:03;;;;;;;25.08;12.07;;;;;;;2.89;37.12;102525.03;4969745;28;20030;-73
2022/03/13 01:08:29;;;;;;;25.25;12.88;;;;;;;2.86;36.97;102520.03;4962826;28;20031;-73
2022/03/13 01:10:55;;;;;;;25.40;11.23;;;;;;;2.81;37.05;102517.03;4966716;28;20527;-73
2022/03/13 01:13:21;;;;;;;28.83;12.88;;;;;;;2.80;36.99;102521.50;4961391;28;20027;-72
2022/03/13 01:15:48;;;;;;;26.63;11.40;;;;;;;2.79;37.17;102519.00;4967159;28;20101;-73
2022/03/13 01:18:16;;;;;;;23.42;11.82;;;;;;;2.74;37.46;102519.47;4957876;28;20110;-73
2022/03/13 01:20:45;;;;;;;21.05;11.63;;;;;;;2.72;37.51;102513.50;4955088;28;20031;-73
2022/03/13 01:23:11;;;;;;;30.60;11.65;;;;;;;2.63;37.12;102511.75;4956829;28;20438;-73
2022/03/13 01:25:39;;;;;;;24.83;10.82;;;;;;;2.58;37.47;102514.03;4961513;28;20037;-73
2022/03/13 01:28:04;;;;;;;23.55;12.45;;;;;;;2.55;37.63;102504.59;4963529;28;20046;-73
2022/03/13 01:30:30;;;;;;;26.05;11.80;;;;;;;2.54;37.78;102508.22;4960527;28;20580;-73
2022/03/13 01:32:56;;;;;;;23.50;11.75;;;;;;;2.51;37.60;102508.50;4963729;28;20031;-72
2022/03/13 01:35:24;;;;;;;25.63;12.15;;;;;;;2.42;37.58;102512.91;4965152;28;20026;-72
2022/03/13 01:37:51;;;;;;;25.58;12.15;;;;;;;2.35;37.68;102516.31;4959947;28;20076;-72
2022/03/13 01:40:23;;;;;;;23.27;11.32;;;;;;;2.33;38.15;102513.78;4960845;28;20034;-73
2022/03/13 01:42:49;;;;;;;24.73;10.98;;;;;;;2.28;38.19;102515.22;4964629;28;20033;-72
2022/03/13 01:45:19;;;;;;;25.73;11.65;;;;;;;2.25;38.55;102516.38;4964941;28;20034;-72
2022/03/13 01:47:46;;;;;;;26.23;12.38;;;;;;;2.26;38.37;102503.97;4961491;28;20034;-72
2022/03/13 01:50:13;;;;;;;22.52;11.73;;;;;;;2.22;37.84;102506.09;4961469;28;20669;-72
2022/03/13 01:52:40;;;;;;;25.40;12.35;;;;;;;2.23;38.20;102512.22;4965834;28;20077;-72
2022/03/13 01:55:07;;;;;;;24.92;11.25;;;;;;;2.24;38.18;102511.22;4959779;28;20035;-73
2022/03/13 01:57:33;;;;;;;30.13;13.98;;;;;;;2.21;38.41;102509.72;4963166;28;20485;-73
2022/03/13 02:00:00;;;;;;;21.77;11.90;;;;;;;2.20;38.44;102502.78;4958233;28;20027;-72
2022/03/13 02:02:29;;;;;;;25.25;12.27;;;;;;;2.19;38.32;102505.56;4965283;28;20014;-73
2022/03/13 02:04:56;;;;;;;27.08;12.13;;;;;;;2.17;38.23;102507.53;4966798;28;20580;-72
2022/03/13 02:07:23;;;;;;;25.35;12.02;;;;;;;2.15;38.58;102509.47;4967437;28;20031;-72
2022/03/13 02:09:50;;;;;;;26.55;11.90;;;;;;;2.15;38.17;102510.28;4962933;28;20855;-73
2022/03/13 02:12:19;;;;;;;27.33;11.75;;;;;;;2.15;38.68;102501.53;4964363;28;20091;-72
2022/03/13 02:14:45;;;;;;;31.30;12.63;;;;;;;2.11;38.53;102504.47;4959017;28;20042;-72
2022/03/13 02:17:10;;;;;;;30.15;12.73;;;;;;;2.10;38.81;102502.81;4957462;28;20531;-72
2022/03/13 02:19:36;;;;;;;25.75;12.07;;;;;;;2.08;38.82;102504.78;4956057;28;20133;-73
2022/03/13 02:22:02;;;;;;;28.88;13.15;;;;;;;2.07;38.76;102505.78;4959466;28;20022;-73
2022/03/13 02:24:28;;;;;;;25.05;12.73;;;;;;;2.07;38.73;102507.59;4962246;28;20038;-72
2022/03/13 02:27:03;;;;;;;30.13;12.05;;;;;;;2.06;38.66;102506.75;4956779;28;20037;-72
2022/03/13 02:29:29;;;;;;;27.23;12.30;;;;;;;2.05;38.34;102502.44;4955852;28;20128;-72
2022/03/13 02:31:58;;;;;;;24.95;12.10;;;;;;;2.05;38.46;102499.81;4959133;28;20030;-72
2022/03/13 02:34:24;;;;;;;31.15;12.73;;;;;;;2.04;39.07;102502.59;4959068;28;20026;-72
2022/03/13 02:36:50;;;;;;;23.52;11.68;;;;;;;2.01;38.88;102498.44;4960641;28;20109;-72
2022/03/13 02:39:16;;;;;;;26.33;12.75;;;;;;;2.00;38.74;102506.53;4959449;28;20580;-72
2022/03/13 02:41:42;;;;;;;26.90;11.38;;;;;;;1.98;38.51;102508.50;4960834;28;20115;-72
2022/03/13 02:44:09;;;;;;;27.05;12.23;;;;;;;1.96;38.79;102498.03;4958182;28;20041;-72
2022/03/13 02:46:57;;;;;;;25.10;11.68;;;;;;;1.89;39.23;102502.25;4959985;28;20496;-72
2022/03/13 02:49:25;;;;;;;30.88;12.52;;;;;;;1.90;38.95;102506.56;4956481;28;20119;-72
2022/03/13 02:51:53;;;;;;;31.27;13.60;;;;;;;1.87;39.01;102501.59;4960477;28;20026;-72
2022/03/13 02:54:20;;;;;;;24.95;11.63;;;;;;;1.85;38.82;102503.56;4955225;28;20436;-72
2022/03/13 02:56:46;;;;;;;26.83;12.45;;;;;;;1.76;38.76;102505.25;4958717;28;20031;-72
2022/03/13 02:59:12;;;;;;;34.10;13.15;;;;;;;1.76;39.20;102493.84;4955665;28;20023;-72
2022/03/13 03:01:38;;;;;;;24.55;12.38;;;;;;;1.73;39.18;102494.97;4959008;28;20031;-73
2022/03/13 03:04:05;;;;;;;31.63;12.93;;;;;;;1.70;39.44;102487.34;4965035;28;20027;-74
2022/03/13 03:06:32;;;;;;;27.23;12.63;;;;;;;1.65;39.31;102494.06;4964979;28;20102;-75
2022/03/13 03:09:01;;;;;;;31.20;12.85;;;;;;;1.61;39.71;102490.84;4957517;28;20476;-74
2022/03/13 03:11:26;;;;;;;29.40;12.73;;;;;;;1.61;39.58;102495.31;4966000;28;20564;-74
2022/03/13 03:13:52;;;;;;;25.55;13.05;;;;;;;1.57;39.94;102494.78;4963628;28;20023;-74
2022/03/13 03:16:18;;;;;;;23.75;11.25;;;;;;;1.57;39.61;102488.66;4957691;28;20035;-75
2022/03/13 03:18:43;;;;;;;23.70;12.00;;;;;;;1.55;39.55;102501.19;4971253;28;20419;-74
2022/03/13 03:21:09;;;;;;;27.83;13.05;;;;;;;1.56;39.72;102494.94;4959320;28;20023;-75
2022/03/13 03:23:35;;;;;;;27.35;12.73;;;;;;;1.54;39.69;102499.53;4954342;28;20031;-74
2022/03/13 03:26:01;;;;;;;26.17;13.15;;;;;;;1.52;40.01;102499.69;4958484;28;20035;-75
2022/03/13 03:28:26;;;;;;;26.60;11.95;;;;;;;1.51;39.94;102503.28;4966860;28;20608;-75
2022/03/13 03:30:52;;;;;;;32.17;12.80;;;;;;;1.51;39.54;102500.66;4954662;28;20031;-76
2022/03/13 03:33:18;;;;;;;27.08;11.77;;;;;;;1.49;40.01;102503.44;4958835;28;20031;-75
2022/03/13 03:35:43;;;;;;;24.02;11.55;;;;;;;1.49;39.75;102507.91;4957479;28;20038;-75
2022/03/13 03:38:11;;;;;;;27.40;12.85;;;;;;;1.48;39.72;102506.22;4965780;28;20034;-76
2022/03/13 03:40:37;;;;;;;26.02;12.10;;;;;;;1.45;39.86;102510.00;4968285;28;20065;-75
2022/03/13 03:43:04;;;;;;;24.77;11.85;;;;;;;1.43;39.84;102505.81;4959166;28;20047;-75
2022/03/13 03:45:31;;;;;;;29.52;12.75;;;;;;;1.41;40.06;102494.56;4957578;28;20587;-76
2022/03/13 03:47:57;;;;;;;25.08;12.82;;;;;;;1.38;40.47;102502.78;4964468;28;20125;-75
2022/03/13 03:50:23;;;;;;;31.50;12.52;;;;;;;1.34;40.16;102499.59;4959303;28;20045;-76
2022/03/13 03:52:54;;;;;;;26.70;13.35;;;;;;;1.32;40.31;102504.19;4958184;28;20023;-75
2022/03/13 03:55:20;;;;;;;24.50;12.32;;;;;;;1.29;40.57;102504.50;4957956;28;21156;-75
2022/03/13 03:57:46;;;;;;;28.27;13.18;;;;;;;1.28;39.87;102504.66;4962492;28;20051;-75
2022/03/13 04:00:12;;;;;;;25.77;14.57;;;;;;;1.26;39.91;102502.16;4962801;28;20031;-76
2022/03/13 04:02:38;;;;;;;26.02;12.23;;;;;;;1.24;40.41;102490.88;4966690;28;20149;-75
2022/03/13 04:05:04;;;;;;;29.10;12.75;;;;;;;1.20;39.83;102500.91;4953809;28;20042;-76
2022/03/13 04:07:30;;;;;;;27.67;12.77;;;;;;;1.18;39.98;102502.00;4972682;28;20053;-75
2022/03/13 04:09:57;;;;;;;21.30;11.82;;;;;;;1.16;40.18;102511.91;4963579;28;20023;-75
2022/03/13 04:12:22;;;;;;;23.33;11.82;;;;;;;1.16;39.92;102503.97;4969413;28;20392;-75
2022/03/13 04:14:48;;;;;;;26.67;13.30;;;;;;;1.15;39.88;102518.16;4962157;28;20113;-75
2022/03/13 04:17:13;;;;;;;26.73;13.80;;;;;;;1.13;40.03;102510.38;4963149;28;20477;-75
2022/03/13 04:19:39;;;;;;;27.42;13.48;;;;;;;1.14;40.24;102521.75;4963287;28;20030;-75
2022/03/13 04:22:05;;;;;;;31.67;14.20;;;;;;;1.11;39.95;102514.97;4965850;28;20026;-75
2022/03/13 04:24:31;;;;;;;30.38;15.07;;;;;;;1.09;40.18;102516.94;4960324;28;20548;-75
2022/03/13 04:26:57;;;;;;;30.20;13.68;;;;;;;1.08;40.41;102514.44;4959410;28;20030;-75
2022/03/13 04:29:24;;;;;;;27.88;13.90;;;;;;;1.07;40.04;102510.09;4973661;28;20061;-75
2022/03/13 04:31:53;;;;;;;25.13;12.88;;;;;;;1.05;40.30;102514.69;4964351;28;20121;-75
2022/03/13 04:34:19;;;;;;;30.02;13.63;;;;;;;1.03;40.41;102508.72;4959630;28;20457;-75
2022/03/13 04:36:45;;;;;;;28.83;13.75;;;;;;;1.00;40.48;102509.00;4961719;28;20091;-75
2022/03/13 04:39:11;;;;;;;32.20;14.52;;;;;;;0.98;40.18;102508.31;4959815;28;20034;-75
2022/03/13 04:41:40;;;;;;;30.45;14.23;;;;;;;0.96;40.53;102515.56;4967298;28;20034;-75
2022/03/13 04:44:07;;;;;;;31.20;15.13;;;;;;;0.94;40.07;102517.50;4956298;28;20073;-75
2022/03/13 04:46:33;;;;;;;28.27;14.27;;;;;;;0.93;40.79;102507.94;4963048;28;20085;-75
2022/03/13 04:48:58;;;;;;;35.03;15.00;;;;;;;0.87;40.79;102501.38;4954529;28;20034;-75
2022/03/13 04:51:24;;;;;;;29.00;14.63;;;;;;;0.84;40.54;102504.31;4960732;28;20118;-75
2022/03/13 04:53:51;;;;;;;31.42;13.77;;;;;;;0.80;40.28;102501.13;4962719;28;20150;-75
2022/03/13 04:56:16;;;;;;;31.52;14.30;;;;;;;0.79;40.93;102502.09;4958792;28;20051;-75
2022/03/13 04:58:42;;;;;;;30.55;13.70;;;;;;;0.77;40.99;102501.41;4957841;28;20094;-75
2022/03/13 05:01:08;;;;;;;34.72;14.90;;;;;;;0.77;41.04;102496.13;4958314;28;20027;-75
2022/03/13 05:03:33;;;;;;;30.60;14.65;;;;;;;0.76;40.41;102501.56;4962440;28;20465;-75
2022/03/13 05:06:05;;;;;;;28.95;13.85;;;;;;;0.74;40.95;102495.59;4959282;28;20143;-75
2022/03/13 05:08:36;;;;;;;31.90;15.15;;;;;;;0.72;41.39;102503.66;4955259;28;20019;-75
2022/03/13 05:11:05;;;;;;;36.40;16.05;;;;;;;0.71;41.21;102503.75;4956996;28;20031;-75
2022/03/13 05:13:31;;;;;;;31.83;14.35;;;;;;;0.65;40.96;102504.34;4963796;28;20537;-75
2022/03/13 05:15:57;;;;;;;33.00;15.18;;;;;;;0.65;41.45;102507.81;4959542;28;20031;-75
2022/03/13 05:18:22;;;;;;;28.30;14.00;;;;;;;0.62;41.33;102510.72;4972657;28;20023;-75
2022/03/13 05:20:48;;;;;;;27.75;14.45;;;;;;;0.59;41.43;102519.75;4963912;28;20030;-75
2022/03/13 05:23:14;;;;;;;28.80;13.85;;;;;;;0.55;41.71;102521.00;4962249;28;20669;-75
2022/03/13 05:25:41;;;;;;;29.05;15.18;;;;;;;0.52;41.80;102523.91;4962508;28;20053;-75
2022/03/13 05:28:08;;;;;;;31.48;15.18;;;;;;;0.50;41.85;102525.00;4961790;28;20030;-75
2022/03/13 05:30:34;;;;;;;29.67;14.32;;;;;;;0.48;41.99;102527.78;4962969;28;20059;-75
2022/03/13 05:33:00;;;;;;;27.40;14.73;;;;;;;0.47;41.64;102528.78;4960614;28;20031;-75
2022/03/13 05:35:26;;;;;;;25.05;13.73;;;;;;;0.44;42.35;102530.84;4958549;28;20038;-75
2022/03/13 05:37:52;;;;;;;31.35;14.23;;;;;;;0.43;41.82;102532.66;4968366;28;20058;-75
2022/03/13 05:40:19;;;;;;;30.45;15.18;;;;;;;0.40;42.40;102530.31;4963692;28;20023;-76
2022/03/13 05:42:56;;;;;;;32.15;14.48;;;;;;;0.36;42.52;102538.59;4969810;28;20517;-75
2022/03/13 05:45:24;;;;;;;27.02;14.68;;;;;;;0.40;41.94;102535.56;4968050;28;20039;-75
2022/03/13 05:47:54;;;;;;;26.23;14.55;;;;;;;0.40;42.59;102534.75;4961520;28;20039;-75
2022/03/13 05:50:21;;;;;;;33.95;15.38;;;;;;;0.41;42.42;102536.41;4960402;28;20026;-75
2022/03/13 05:52:48;;;;;;;26.98;13.55;;;;;;;0.42;42.48;102533.63;4958377;28;20457;-75
2022/03/13 05:55:15;;;;;;;27.05;13.80;;;;;;;0.44;42.16;102538.78;4960317;28;20046;-75
2022/03/13 05:57:42;;;;;;;27.17;15.02;;;;;;;0.48;42.04;102543.63;4965610;28;20048;-75
2022/03/13 06:00:11;;;;;;;32.90;15.27;;;;;;;0.53;42.46;102543.19;4957023;28;20620;-76
2022/03/13 06:02:38;;;;;;;30.45;14.23;;;;;;;0.57;42.08;102539.34;4963899;28;20055;-75
2022/03/13 06:05:05;;;;;;;31.00;15.50;;;;;;;0.62;42.17;102549.47;4959745;28;20035;-76
2022/03/13 06:07:30;;;;;;;29.38;14.48;;;;;;;0.67;41.77;102552.50;4962478;28;20027;-76
2022/03/13 06:09:57;;;;;;;31.90;16.50;;;;;;;0.73;41.70;102552.81;4965101;28;20031;-75
2022/03/13 06:12:23;;;;;;;37.45;15.80;;;;;;;0.80;41.73;102553.91;4960496;28;20019;-75
2022/03/13 06:14:48;;;;;;;33.75;15.60;;;;;;;0.87;42.10;102554.16;4964754;28;20110;-75
2022/03/13 06:17:14;;;;;;;29.73;14.75;;;;;;;0.94;41.67;102551.81;4972351;28;20023;-75
2022/03/13 06:19:42;;;;;;;31.05;15.82;;;;;;;1.00;41.43;102552.06;4966398;28;20472;-76
2022/03/13 06:22:10;;;;;;;36.30;15.85;;;;;;;1.06;41.49;102548.84;4961435;28;20358;-75
2022/03/13 06:24:35;;;;;;;33.00;16.08;;;;;;;1.12;41.36;102545.66;4962158;28;20027;-75
2022/03/13 06:27:01;;;;;;;35.78;16.70;;;;;;;1.20;41.16;102551.06;4959328;28;20105;-76
2022/03/13 06:29:27;;;;;;;35.33;16.00;;;;;;;1.28;41.54;102552.19;4958751;28;20106;-75
2022/03/13 06:31:52;;;;;;;40.58;15.88;;;;;;;1.34;41.41;102543.66;4966006;28;20385;-74
2022/03/13 06:34:18;;;;;;;31.05;14.30;;;;;;;1.41;41.46;102545.59;4963286;28;20123;-74
2022/03/13 06:36:46;;;;;;;33.65;14.57;;;;;;;1.48;41.12;102546.69;4961461;28;20090;-75
2022/03/13 06:39:11;;;;;;;36.53;15.73;;;;;;;1.56;41.14;102550.41;4969045;28;20031;-74
2022/03/13 06:41:38;;;;;;;34.17;15.02;;;;;;;1.66;41.07;102551.22;4964476;28;20110;-74
2022/03/13 06:44:04;;;;;;;35.00;15.50;;;;;;;1.74;41.28;102551.31;4958423;28;20118;-75
2022/03/13 06:46:30;;;;;;;34.13;16.05;;;;;;;1.81;40.81;102555.88;4955164;28;20433;-76
2022/03/13 06:48:56;;;;;;;41.08;15.45;;;;;;;1.90;40.75;102554.16;4961568;28;20059;-75
2022/03/13 06:51:21;;;;;;;35.03;15.27;;;;;;;1.97;41.00;102555.22;4968790;28;20574;-74
2022/03/13 06:53:47;;;;;;;34.88;15.27;;;;;;;2.05;40.84;102551.84;4963032;28;21423;-74
2022/03/13 06:56:12;;;;;;;36.38;15.90;;;;;;;2.11;40.53;102552.06;4964910;28;20101;-74
2022/03/13 06:58:40;;;;;;;40.67;16.33;;;;;;;2.21;40.09;102559.13;4958036;28;20051;-74
2022/03/13 07:01:06;;;;;;;37.22;16.83;;;;;;;2.29;40.01;102551.28;4964106;28;20197;-74
2022/03/13 07:03:32;;;;;;;35.85;14.98;;;;;;;2.36;40.09;102557.66;4973447;28;20030;-74
2022/03/13 07:05:58;;;;;;;28.60;14.57;;;;;;;2.43;39.90;102559.53;4964152;28;20046;-75
2022/03/13 07:08:24;;;;;;;41.55;14.95;;;;;;;2.53;39.80;102559.47;4963126;28;20063;-74
2022/03/13 07:10:50;;;;;;;38.08;15.75;;;;;;;2.60;39.83;102568.47;4960895;28;20035;-75
2022/03/13 07:13:17;;;;;;;34.28;16.17;;;;;;;2.67;39.78;102561.56;4961714;28;20027;-75
2022/03/13 07:15:43;;;;;;;29.77;14.52;;;;;;;2.76;39.43;102566.94;4959402;28;20034;-74
2022/03/13 07:18:09;;;;;;;36.33;16.35;;;;;;;2.85;39.30;102564.22;4965818;28;20035;-76
2022/03/13 07:20:34;;;;;;;32.60;14.05;;;;;;;2.94;39.14;102570.41;4962036;28;20023;-75
2022/03/13 07:23:00;;;;;;;33.33;15.63;;;;;;;3.02;39.22;102557.22;4957600;28;20389;-76
2022/03/13 07:25:25;;;;;;;34.10;16.73;;;;;;;3.10;39.15;102557.31;4959837;28;20039;-75
2022/03/13 07:27:51;;;;;;;35.13;13.85;;;;;;;3.21;38.97;102564.97;4953614;28;20031;-75
2022/03/13 07:30:17;;;;;;;36.80;15.70;;;;;;;3.32;38.71;102570.03;4960307;28;20035;-74
2022/03/13 07:32:43;;;;;;;36.47;14.35;;;;;;;3.43;38.76;102565.47;4967855;28;20044;-74
2022/03/13 07:35:10;;;;;;;33.70;14.50;;;;;;;3.55;38.72;102561.53;4972037;28;20432;-74
2022/03/13 07:37:36;;;;;;;32.10;14.00;;;;;;;3.64;38.49;102558.78;4960800;28;20033;-74
2022/03/13 07:40:03;;;;;;;39.95;14.93;;;;;;;3.77;38.54;102561.03;4962160;28;20400;-74
2022/03/13 07:42:28;;;;;;;34.03;15.02;;;;;;;3.87;38.13;102556.41;4974443;28;20031;-74
2022/03/13 07:44:54;;;;;;;36.45;14.30;;;;;;;3.99;38.03;102554.31;4964467;28;20523;-74
2022/03/13 07:47:19;;;;;;;29.52;13.40;;;;;;;4.11;37.65;102560.13;4970591;28;20065;-74
2022/03/13 07:49:45;;;;;;;25.20;12.68;;;;;;;4.22;37.59;102554.53;4961190;28;20059;-74
2022/03/13 07:52:11;;;;;;;34.80;14.88;;;;;;;4.30;37.27;102551.88;4959225;28;20030;-75
2022/03/13 07:54:36;;;;;;;29.13;14.35;;;;;;;4.40;37.12;102551.75;4965955;28;20035;-74
2022/03/13 07:57:05;;;;;;;32.28;14.00;;;;;;;4.51;37.00;102556.75;4962111;28;20472;-74
2022/03/13 07:59:30;;;;;;;29.63;13.07;;;;;;;4.62;36.95;102550.28;4959192;28;20030;-76
2022/03/13 08:01:56;;;;;;;32.20;14.60;;;;;;;4.73;36.72;102549.97;4958847;28;20050;-75
2022/03/13 08:04:22;;;;;;;26.33;13.57;;;;;;;4.82;36.47;102552.44;4961336;28;20430;-74
2022/03/13 08:06:47;;;;;;;31.45;14.80;;;;;;;4.91;36.32;102553.28;4968430;28;20023;-75
2022/03/13 08:09:13;;;;;;;31.35;14.90;;;;;;;4.99;36.27;102545.31;4961569;28;20035;-75
2022/03/13 08:11:39;;;;;;;29.63;13.52;;;;;;;5.12;36.52;102539.50;4959459;28;20023;-75
2022/03/13 08:14:07;;;;;;;30.83;14.02;;;;;;;5.21;35.93;102541.16;4960267;28;20034;-75
2022/03/13 08:16:33;;;;;;;33.53;13.70;;;;;;;5.30;35.91;102540.13;4964919;28;20077;-75
2022/03/13 08:18:59;;;;;;;31.38;13.88;;;;;;;5.41;35.70;102542.44;4964413;28;20027;-75
2022/03/13 08:21:25;;;;;;;29.30;13.88;;;;;;;5.53;35.76;102542.88;4968576;28;20067;-75
2022/03/13 08:23:50;;;;;;;27.92;13.73;;;;;;;5.65;35.52;102546.00;4963100;28;20100;-75
2022/03/13 08:26:16;;;;;;;28.00;12.30;;;;;;;5.76;35.44;102550.97;4957776;28;20034;-75
2022/03/13 08:28:42;;;;;;;28.50;13.20;;;;;;;5.86;35.21;102537.44;4959463;28;20049;-75
2022/03/13 08:31:08;;;;;;;24.70;12.32;;;;;;;5.96;35.12;102538.09;4961980;28;20634;-75
2022/03/13 08:33:34;;;;;;;26.80;12.73;;;;;;;6.03;34.81;102536.41;4958093;28;20102;-75
2022/03/13 08:36:00;;;;;;;27.88;13.35;;;;;;;6.12;34.48;102543.34;4958301;28;20544;-75
2022/03/13 08:38:25;;;;;;;23.42;11.55;;;;;;;6.22;34.35;102540.44;4961282;28;20025;-76
2022/03/13 08:40:51;;;;;;;23.88;12.05;;;;;;;6.33;34.14;102538.22;4963620;28;20101;-75
2022/03/13 08:43:17;;;;;;;24.88;11.90;;;;;;;6.47;34.24;102546.47;4963689;28;20090;-76
2022/03/13 08:45:42;;;;;;;27.45;13.05;;;;;;;6.59;33.93;102539.69;4963759;28;20030;-75
2022/03/13 08:48:08;;;;;;;24.35;12.20;;;;;;;6.73;33.68;102538.09;4959498;28;20100;-76
2022/03/13 08:50:33;;;;;;;25.30;12.18;;;;;;;6.85;33.56;102542.84;4964096;28;20043;-76
2022/03/13 08:53:00;;;;;;;25.50;12.38;;;;;;;6.97;33.57;102541.38;4960326;28;20031;-76
2022/03/13 08:55:25;;;;;;;20.45;11.40;;;;;;;7.11;33.15;102541.59;4961316;28;20108;-76
2022/03/13 08:57:51;;;;;;;28.42;10.98;;;;;;;7.20;33.31;102532.53;4955361;28;20069;-76
2022/03/13 09:00:19;;;;;;;26.08;11.55;;;;;;;7.31;32.59;102532.06;4966173;28;20638;-76
2022/03/13 09:02:45;;;;;;;20.35;10.80;;;;;;;7.44;32.93;102540.25;4967055;28;20104;-76
2022/03/13 09:05:11;;;;;;;23.05;11.80;;;;;;;7.56;32.45;102528.13;4970052;28;20476;-77
2022/03/13 09:07:37;;;;;;;23.73;11.55;;;;;;;7.67;32.36;102526.00;4967337;28;20515;-76
2022/03/13 09:10:06;;;;;;;21.00;10.55;;;;;;;7.80;32.08;102524.31;4960356;28;20031;-76
2022/03/13 09:12:31;;;;;;;22.00;10.38;;;;;;;7.95;31.85;102521.63;4963447;28;20023;-76
2022/03/13 09:14:58;;;;;;;28.77;10.80;;;;;;;8.06;32.00;102518.47;4970631;28;20025;-76
2022/03/13 09:17:23;;;;;;;22.50;11.00;;;;;;;8.17;31.40;102514.50;4958180;28;20429;-76
2022/03/13 09:19:49;;;;;;;20.75;11.07;;;;;;;8.27;31.40;102520.34;4971521;28;20034;-76
2022/03/13 09:22:14;;;;;;;24.20;11.50;;;;;;;8.38;31.37;102522.53;4960527;28;20027;-76
2022/03/13 09:24:40;;;;;;;19.67;10.43;;;;;;;8.50;30.83;102520.19;4959240;28;20033;-76
2022/03/13 09:27:06;;;;;;;23.05;9.88;;;;;;;8.62;31.09;102529.38;4958802;28;20035;-77
2022/03/13 09:29:32;;;;;;;18.60;10.23;;;;;;;8.73;30.93;102526.16;4957433;28;20109;-76
2022/03/13 09:31:57;;;;;;;20.15;9.40;;;;;;;8.85;30.60;102525.66;4959228;28;20081;-76
2022/03/13 09:34:23;;;;;;;21.85;10.15;;;;;;;8.95;30.68;102523.47;4958132;28;20625;-77
2022/03/13 09:36:49;;;;;;;24.77;10.52;;;;;;;9.06;30.03;102517.59;4958959;28;20496;-76
2022/03/13 09:39:14;;;;;;;21.42;10.23;;;;;;;9.17;30.16;102527.75;4957886;28;20062;-76
2022/03/13 09:41:41;;;;;;;16.88;8.73;;;;;;;9.28;29.60;102519.16;4974823;28;20058;-76
2022/03/13 09:44:07;;;;;;;18.23;9.15;;;;;;;9.41;29.48;102512.25;4958641;28;20043;-77
2022/03/13 09:46:37;;;;;;;18.00;8.95;;;;;;;9.52;29.21;102519.75;4961129;28;20495;-77
2022/03/13 09:49:03;;;;;;;18.88;9.18;;;;;;;9.63;29.11;102511.13;4963338;28;20551;-76
2022/03/13 09:51:29;;;;;;;14.82;7.82;;;;;;;9.74;29.05;102512.44;4953620;28;20026;-74
2022/03/13 09:53:54;;;;;;;17.70;8.68;;;;;;;9.85;28.82;102515.34;4955480;28;20027;-74
2022/03/13 09:56:21;;;;;;;13.88;8.07;;;;;;;9.96;28.46;102512.09;4955751;28;20138;-74
2022/03/13 09:58:47;;;;;;;14.88;7.65;;;;;;;10.08;28.22;102512.34;4957415;28;20149;-73
2022/03/13 10:01:12;;;;;;;12.45;6.90;;;;;;;10.19;28.37;102505.56;4959376;28;20027;-74
2022/03/13 10:03:39;;;;;;;11.90;6.63;;;;;;;10.29;27.86;102503.38;4967234;28;20042;-74
2022/03/13 10:06:05;;;;;;;12.90;7.03;;;;;;;10.39;27.68;102502.94;4962699;28;20038;-74
2022/03/13 10:08:32;;;;;;;14.80;7.18;;;;;;;10.47;27.53;102503.59;4961108;28;20035;-74
2022/03/13 10:10:59;;;;;;;17.92;7.32;;;;;;;10.59;27.50;102501.13;4961834;28;20500;-73
2022/03/13 10:13:41;;;;;;;15.88;6.82;;;;;;;10.67;25.89;102492.06;4958923;28;20034;-74
2022/03/13 10:16:15;;;;;;;17.27;7.60;;;;;;;10.79;26.54;102487.75;4960021;28;20496;-74
2022/03/13 10:18:40;;;;;;;12.68;6.18;;;;;;;10.89;26.30;102486.28;4957482;28;20045;-74
2022/03/13 10:21:12;;;;;;;12.77;7.18;;;;;;;10.98;25.82;102483.41;4959539;28;20034;-74
2022/03/13 10:23:37;;;;;;;11.77;5.80;;;;;;;11.09;25.51;102485.41;4969219;28;20030;-74
2022/03/13 10:26:05;;;;;;;16.60;6.30;;;;;;;11.15;25.55;102474.69;4958001;28;20058;-74
2022/03/13 10:28:36;;;;;;;10.00;5.82;;;;;;;11.23;25.20;102483.53;4957866;28;20065;-74
2022/03/13 10:31:01;;;;;;;14.68;5.53;;;;;;;11.30;24.82;102481.66;4955218;28;20086;-74
2022/03/13 10:33:48;;;;;;;12.38;6.35;;;;;;;11.38;24.87;102470.72;4959480;28;20556;-74
2022/03/13 10:36:21;;;;;;;11.63;5.70;;;;;;;11.45;24.44;102466.13;4957600;28;20046;-74
2022/03/13 10:38:49;;;;;;;10.77;5.88;;;;;;;11.49;24.20;102467.38;4958693;28;20069;-74
2022/03/13 10:41:15;;;;;;;10.98;5.63;;;;;;;11.53;24.03;102471.28;4960604;28;20038;-74
2022/03/13 10:43:53;;;;;;;13.25;6.00;;;;;;;11.54;22.92;102466.75;4956515;28;20035;-74
2022/03/13 10:46:26;;;;;;;12.95;6.15;;;;;;;11.62;23.13;102464.63;4955963;28;20043;-74
2022/03/13 10:48:53;;;;;;;13.82;6.82;;;;;;;11.75;23.71;102461.88;4960750;28;20061;-74
2022/03/13 10:51:32;;;;;;;16.77;6.35;;;;;;;11.83;23.19;102458.16;4957450;28;20032;-74
2022/03/13 10:53:58;;;;;;;11.77;6.10;;;;;;;11.93;23.80;102455.00;4957013;28;20054;-74
2022/03/13 10:56:23;;;;;;;10.20;5.65;;;;;;;12.02;23.53;102453.69;4955258;28;20055;-74
2022/03/13 10:58:49;;;;;;;12.57;5.78;;;;;;;12.13;23.31;102452.19;4956945;28;20052;-74
2022/03/13 11:01:19;;;;;;;8.93;5.50;;;;;;;12.28;23.53;102453.53;4960023;28;20468;-74
2022/03/13 11:03:48;;;;;;;14.75;5.97;;;;;;;12.42;23.15;102450.75;4962234;28;20023;-74
2022/03/13 11:06:14;;;;;;;11.02;5.43;;;;;;;12.56;23.43;102450.41;4958761;28;20038;-75
2022/03/13 11:08:41;;;;;;;13.23;6.13;;;;;;;12.65;22.88;102443.72;4959955;28;20031;-74
2022/03/13 11:11:09;;;;;;;13.93;5.68;;;;;;;12.71;22.88;102452.78;4957663;28;20121;-74
2022/03/13 11:13:35;;;;;;;15.18;6.03;;;;;;;12.76;22.50;102444.06;4957227;28;20496;-74
2022/03/13 11:16:02;;;;;;;10.90;5.00;;;;;;;12.83;22.62;102442.13;4956847;28;20397;-74